createdAt,value
2023-03-20T00:02:05.921Z,100312.94
2023-03-20T00:04:32.983Z,100311.22
2023-03-20T00:07:00.029Z,100304.31
2023-03-20T00:09:27.276Z,100306.03
2023-03-20T00:11:55.501Z,100315.66
2023-03-20T00:14:24.480Z,100319.16
2023-03-20T00:16:51.703Z,100315.78
2023-03-20T00:19:23.410Z,100318.38
2023-03-20T00:21:51.115Z,100310.22
2023-03-20T00:24:18.192Z,100312.56
2023-03-20T00:26:45.882Z,100303.06
2023-03-20T00:29:26.859Z,100299.47
2023-03-20T00:31:54.387Z,100291.50
2023-03-20T00:34:23.733Z,100294.25
2023-03-20T00:36:51.805Z,100301.09
2023-03-20T00:39:18.970Z,100293.41
2023-03-20T00:41:58.627Z,100304.25
2023-03-20T00:44:39.007Z,100307.94
2023-03-20T00:47:18.599Z,100302.94
2023-03-20T00:49:46.134Z,100293.38
2023-03-20T00:52:19.417Z,100288.91
2023-03-20T00:54:46.732Z,100297.47
2023-03-20T00:57:18.238Z,100295.94
2023-03-20T01:00:21.424Z,100299.91
2023-03-20T01:02:48.406Z,100297.13
2023-03-20T01:05:15.364Z,100299.25
2023-03-20T01:07:42.500Z,100296.88
2023-03-20T01:10:11.574Z,100284.47
2023-03-20T01:12:40.869Z,100290.13
2023-03-20T01:15:22.282Z,100294.94
2023-03-20T01:17:49.650Z,100283.16
2023-03-20T01:20:19.352Z,100278.81
2023-03-20T01:22:46.583Z,100280.00
2023-03-20T01:25:13.780Z,100277.00
2023-03-20T01:27:40.809Z,100275.81
2023-03-20T01:30:30.088Z,100267.06
2023-03-20T01:32:58.960Z,100268.75
2023-03-20T01:35:27.554Z,100272.16
2023-03-20T01:37:56.364Z,100269.53
2023-03-20T01:40:54.243Z,100270.94
2023-03-20T01:43:22.371Z,100272.81
2023-03-20T01:46:17.893Z,100274.38
2023-03-20T01:48:51.180Z,100265.53
2023-03-20T01:51:23.324Z,100270.25
2023-03-20T01:53:58.446Z,100269.31
2023-03-20T01:56:25.739Z,100267.56
2023-03-20T01:59:33.172Z,100279.84
2023-03-20T02:02:00.434Z,100273.78
2023-03-20T02:04:34.413Z,100279.03
2023-03-20T02:07:07.428Z,100268.91
2023-03-20T02:09:41.223Z,100277.84
2023-03-20T02:12:13.326Z,100272.06
2023-03-20T02:14:40.725Z,100271.28
2023-03-20T02:17:42.268Z,100265.94
2023-03-20T02:20:12.749Z,100262.16
2023-03-20T02:23:14.450Z,100264.34
2023-03-20T02:26:05.142Z,100260.63
2023-03-20T02:28:54.134Z,100267.22
2023-03-20T02:31:54.459Z,100266.72
2023-03-20T02:34:50.835Z,100259.13
2023-03-20T02:37:36.648Z,100262.13
2023-03-20T02:40:12.604Z,100260.25
2023-03-20T02:42:44.852Z,100252.41
2023-03-20T02:45:19.928Z,100248.88
2023-03-20T02:47:54.804Z,100249.69
2023-03-20T02:51:10.040Z,100249.47
2023-03-20T02:53:53.163Z,100248.81
2023-03-20T02:56:48.361Z,100247.88
2023-03-20T02:59:34.698Z,100254.78
2023-03-20T03:02:06.027Z,100249.06
2023-03-20T03:04:36.328Z,100240.31
2023-03-20T03:07:03.913Z,100235.22
2023-03-20T03:09:33.621Z,100232.69
2023-03-20T03:12:07.753Z,100229.03
2023-03-20T03:14:54.289Z,100223.75
2023-03-20T03:17:22.331Z,100221.28
2023-03-20T03:19:55.971Z,100223.75
2023-03-20T03:22:24.391Z,100216.97
2023-03-20T03:24:52.670Z,100218.97
2023-03-20T03:27:29.169Z,100217.59
2023-03-20T03:30:02.128Z,100217.69
2023-03-20T03:32:33.766Z,100216.78
2023-03-20T03:35:01.330Z,100220.28
2023-03-20T03:37:34.375Z,100219.91
2023-03-20T03:40:35.519Z,100211.50
2023-03-20T03:43:07.332Z,100210.72
2023-03-20T03:45:38.524Z,100221.16
2023-03-20T03:48:17.248Z,100222.22
2023-03-20T03:50:49.324Z,100217.13
2023-03-20T03:53:22.873Z,100216.31
2023-03-20T03:55:55.015Z,100217.13
2023-03-20T03:58:30.508Z,100221.50
2023-03-20T04:00:58.772Z,100219.41
2023-03-20T04:03:29.325Z,100215.28
2023-03-20T04:05:56.359Z,100212.81
2023-03-20T04:08:23.320Z,100215.63
2023-03-20T04:10:50.361Z,100220.13
2023-03-20T04:13:17.387Z,100217.03
2023-03-20T04:15:44.552Z,100217.53
2023-03-20T04:18:16.697Z,100213.41
2023-03-20T04:20:47.988Z,100212.31
2023-03-20T04:23:16.768Z,100208.22
2023-03-20T04:25:43.759Z,100209.31
2023-03-20T04:28:11.987Z,100209.31
2023-03-20T04:31:02.422Z,100207.56
2023-03-20T04:33:48.077Z,100204.66
2023-03-20T04:36:42.398Z,100209.16
2023-03-20T04:39:11.956Z,100207.25
2023-03-20T04:41:39.805Z,100203.75
2023-03-20T04:44:07.288Z,100205.34
2023-03-20T04:46:35.427Z,100200.34
2023-03-20T04:49:06.450Z,100201.06
2023-03-20T04:51:33.408Z,100211.25
2023-03-20T04:54:00.468Z,100196.59
2023-03-20T04:56:27.613Z,100199.63
2023-03-20T04:59:07.138Z,100194.53
2023-03-20T05:01:34.112Z,100193.75
2023-03-20T05:04:01.664Z,100197.09
2023-03-20T05:06:32.413Z,100191.84
2023-03-20T05:09:00.893Z,100198.84
2023-03-20T05:11:30.184Z,100199.94
2023-03-20T05:14:06.836Z,100200.75
2023-03-20T05:17:12.316Z,100204.88
2023-03-20T05:20:00.130Z,100208.00
2023-03-20T05:22:38.798Z,100217.16
2023-03-20T05:25:11.534Z,100221.69
2023-03-20T05:28:03.425Z,100211.03
2023-03-20T05:30:48.087Z,100211.25
2023-03-20T05:33:41.545Z,100204.41
2023-03-20T05:36:27.584Z,100205.78
2023-03-20T05:39:04.080Z,100199.78
2023-03-20T05:41:51.867Z,100197.72
2023-03-20T05:44:37.547Z,100199.88
2023-03-20T05:47:26.038Z,100196.69
2023-03-20T05:50:04.434Z,100198.66
2023-03-20T05:53:01.067Z,100196.59
2023-03-20T05:55:39.137Z,100198.03
2023-03-20T05:58:24.543Z,100188.63
2023-03-20T06:01:10.149Z,100192.94
2023-03-20T06:03:57.361Z,100194.69
2023-03-20T06:06:44.437Z,100198.56
2023-03-20T06:09:11.883Z,100194.97
2023-03-20T06:11:39.123Z,100195.88
2023-03-20T06:14:07.218Z,100195.66
2023-03-20T06:16:38.676Z,100196.38
2023-03-20T06:19:05.692Z,100200.75
2023-03-20T06:21:33.066Z,100200.59
2023-03-20T06:24:00.698Z,100197.25
2023-03-20T06:26:28.724Z,100204.97
2023-03-20T06:29:03.507Z,100205.63
2023-03-20T06:31:31.959Z,100203.88
2023-03-20T06:34:00.896Z,100204.34
2023-03-20T06:36:28.122Z,100209.25
2023-03-20T06:39:01.697Z,100201.00
2023-03-20T06:41:34.715Z,100200.31
2023-03-20T06:44:06.688Z,100194.41
2023-03-20T06:46:54.094Z,100188.41
2023-03-20T06:49:21.527Z,100192.00
2023-03-20T06:51:48.778Z,100188.56
2023-03-20T06:54:23.185Z,100186.97
2023-03-20T06:56:51.497Z,100179.31
2023-03-20T06:59:18.476Z,100182.03
2023-03-20T07:01:45.656Z,100179.69
2023-03-20T07:04:14.725Z,100173.78
2023-03-20T07:06:48.633Z,100171.91
2023-03-20T07:09:17.610Z,100176.44
2023-03-20T07:11:45.184Z,100177.66
2023-03-20T07:14:15.440Z,100181.22
2023-03-20T07:16:56.490Z,100178.31
2023-03-20T07:19:23.549Z,100172.69
2023-03-20T07:21:57.596Z,100180.81
2023-03-20T07:24:24.890Z,100179.19
2023-03-20T07:26:51.879Z,100182.38
2023-03-20T07:29:19.936Z,100178.72
2023-03-20T07:31:47.190Z,100184.63
2023-03-20T07:34:22.600Z,100178.06
2023-03-20T07:36:50.360Z,100172.16
2023-03-20T07:39:20.186Z,100175.56
2023-03-20T07:41:57.343Z,100181.09
2023-03-20T07:44:43.425Z,100185.00
2023-03-20T07:47:11.824Z,100187.69
2023-03-20T07:49:38.906Z,100185.66
2023-03-20T07:52:07.972Z,100185.75
2023-03-20T07:54:38.086Z,100175.19
2023-03-20T07:57:05.545Z,100181.75
2023-03-20T07:59:32.808Z,100175.13
2023-03-20T08:01:59.850Z,100178.81
2023-03-20T08:04:26.848Z,100183.19
2023-03-20T08:06:54.034Z,100181.63
2023-03-20T08:09:21.134Z,100171.44
2023-03-20T08:11:48.154Z,100172.84
2023-03-20T08:14:15.427Z,100174.66
2023-03-20T08:16:42.577Z,100162.69
2023-03-20T08:19:12.592Z,100166.41
2023-03-20T08:21:40.425Z,100170.75
2023-03-20T08:24:08.720Z,100174.34
2023-03-20T08:26:36.394Z,100165.78
2023-03-20T08:29:03.369Z,100170.09
2023-03-20T08:31:31.677Z,100159.16
2023-03-20T08:33:58.809Z,100155.19
2023-03-20T08:36:25.892Z,100156.34
2023-03-20T08:38:52.937Z,100159.06
2023-03-20T08:41:20.417Z,100164.31
2023-03-20T08:43:48.079Z,100158.44
2023-03-20T08:46:15.378Z,100166.44
2023-03-20T08:48:42.521Z,100164.28
2023-03-20T08:51:10.082Z,100160.13
2023-03-20T08:53:37.108Z,100155.06
2023-03-20T08:56:04.291Z,100153.78
2023-03-20T08:58:31.286Z,100158.47
2023-03-20T09:01:03.044Z,100155.91
2023-03-20T09:03:30.271Z,100151.06
2023-03-20T09:05:57.405Z,100145.63
2023-03-20T09:08:24.925Z,100154.44
2023-03-20T09:10:53.405Z,100150.34
2023-03-20T09:13:27.819Z,100151.28
2023-03-20T09:15:55.668Z,100156.56
2023-03-20T09:18:22.750Z,100151.88
2023-03-20T09:20:49.842Z,100151.44
2023-03-20T09:23:16.998Z,100142.06
2023-03-20T09:25:44.077Z,100137.84
2023-03-20T09:28:11.317Z,100140.78
2023-03-20T09:30:39.569Z,100138.53
2023-03-20T09:33:06.655Z,100144.03
2023-03-20T09:35:33.831Z,100141.66
2023-03-20T09:38:01.080Z,100132.34
2023-03-20T09:40:31.246Z,100135.09
2023-03-20T09:43:36.760Z,100124.25
2023-03-20T09:46:31.371Z,100119.06
2023-03-20T09:49:13.168Z,100120.31
2023-03-20T09:52:00.680Z,100116.22
2023-03-20T09:54:28.505Z,100112.09
2023-03-20T09:56:56.860Z,100114.00
2023-03-20T09:59:25.251Z,100111.66
2023-03-20T10:01:54.318Z,100108.13
2023-03-20T10:04:21.594Z,100104.53
2023-03-20T10:06:48.599Z,100104.84
2023-03-20T10:09:23.915Z,100105.22
2023-03-20T10:12:14.684Z,100098.44
2023-03-20T10:15:29.244Z,100095.28
2023-03-20T10:18:25.644Z,100084.34
2023-03-20T10:21:05.151Z,100081.84
2023-03-20T10:23:36.118Z,100080.09
2023-03-20T10:26:13.549Z,100075.84
2023-03-20T10:28:50.929Z,100069.03
2023-03-20T10:31:45.797Z,100066.63
2023-03-20T10:34:45.069Z,100067.81
2023-03-20T10:37:39.947Z,100069.47
2023-03-20T10:40:27.561Z,100065.13
2023-03-20T10:42:57.248Z,100062.56
2023-03-20T10:45:44.677Z,100060.75
2023-03-20T10:48:21.153Z,100065.06
2023-03-20T10:50:59.814Z,100053.69
2023-03-20T10:53:41.629Z,100057.88
2023-03-20T10:56:16.802Z,100051.91
2023-03-20T10:58:45.433Z,100054.38
2023-03-20T11:01:12.468Z,100050.09
2023-03-20T11:03:41.428Z,100046.69
2023-03-20T11:06:27.893Z,100044.97
2023-03-20T11:08:55.088Z,100044.84
2023-03-20T11:11:26.572Z,100040.41
2023-03-20T11:13:54.038Z,100042.03
2023-03-20T11:16:33.094Z,100038.50
2023-03-20T11:19:08.571Z,100032.50
2023-03-20T11:21:39.118Z,100035.00
2023-03-20T11:24:06.756Z,100033.22
2023-03-20T11:26:35.889Z,100028.84
2023-03-20T11:29:02.920Z,100027.81
2023-03-20T11:31:34.614Z,100017.53
2023-03-20T11:34:04.591Z,100014.00
2023-03-20T11:36:33.304Z,100010.50
2023-03-20T11:39:06.429Z,100007.13
2023-03-20T11:41:33.543Z,100002.78
2023-03-20T11:44:00.628Z,100002.91
2023-03-20T11:46:27.720Z,100000.22
2023-03-20T11:49:16.122Z,100000.25
2023-03-20T11:51:43.064Z,99997.66
2023-03-20T11:54:20.816Z,99995.84
2023-03-20T11:56:53.954Z,99993.16
2023-03-20T11:59:21.126Z,99987.94
2023-03-20T12:01:52.746Z,99988.69
2023-03-20T12:04:42.886Z,99978.44
2023-03-20T12:07:33.206Z,99981.78
2023-03-20T12:10:07.685Z,99975.78
2023-03-20T12:12:34.564Z,99972.38
2023-03-20T12:15:13.445Z,99969.38
2023-03-20T12:18:01.524Z,99966.13
2023-03-20T12:20:53.184Z,99970.22
2023-03-20T12:23:34.256Z,99959.88
2023-03-20T12:26:15.105Z,99954.53
2023-03-20T12:29:17.586Z,99961.19
2023-03-20T12:31:48.123Z,99960.28
2023-03-20T12:34:42.411Z,99968.75
2023-03-20T12:37:13.384Z,99959.44
2023-03-20T12:39:46.533Z,99952.69
2023-03-20T12:42:51.404Z,99949.97
2023-03-20T12:45:22.068Z,99944.81
2023-03-20T12:48:19.907Z,99942.19
2023-03-20T12:51:13.556Z,99940.53
2023-03-20T12:53:49.424Z,99942.34
2023-03-20T12:56:46.817Z,99926.97
2023-03-20T12:59:28.629Z,99925.97
2023-03-20T13:02:24.470Z,99915.00
2023-03-20T13:04:59.962Z,99915.09
2023-03-20T13:07:42.863Z,99915.03
2023-03-20T13:10:35.346Z,99912.38
2023-03-20T13:13:38.290Z,99907.16
2023-03-20T13:16:17.991Z,99910.50
2023-03-20T13:19:26.345Z,99899.22
2023-03-20T13:22:01.773Z,99900.75
2023-03-20T13:24:43.162Z,99893.81
2023-03-20T13:27:28.806Z,99895.41
2023-03-20T13:29:55.685Z,99888.47
2023-03-20T13:32:38.562Z,99887.63
2023-03-20T13:35:20.739Z,99890.19
2023-03-20T13:38:01.574Z,99887.56
2023-03-20T13:40:38.374Z,99878.94
2023-03-20T13:43:25.528Z,99879.03
2023-03-20T13:46:02.559Z,99881.69
2023-03-20T13:48:29.439Z,99878.31
2023-03-20T13:51:18.454Z,99879.16
2023-03-20T13:53:57.937Z,99868.81
2023-03-20T13:56:37.708Z,99871.28
2023-03-20T13:59:34.309Z,99867.03
2023-03-20T14:02:10.688Z,99862.06
2023-03-20T14:04:37.968Z,99865.72
2023-03-20T14:07:31.904Z,99865.66
2023-03-20T14:09:59.395Z,99861.25
2023-03-20T14:12:26.717Z,99862.03
2023-03-20T14:14:57.019Z,99859.28
2023-03-20T14:17:28.576Z,99858.34
2023-03-20T14:19:56.164Z,99863.28
2023-03-20T14:22:27.735Z,99855.50
2023-03-20T14:24:58.475Z,99856.19
2023-03-20T14:27:45.075Z,99858.53
2023-03-20T14:30:45.917Z,99853.13
2023-03-20T14:33:16.301Z,99852.91
2023-03-20T14:35:50.922Z,99851.16
2023-03-20T14:38:20.992Z,99850.34
2023-03-20T14:41:06.611Z,99846.94
2023-03-20T14:43:52.283Z,99848.63
2023-03-20T14:46:56.392Z,99840.84
2023-03-20T14:49:27.754Z,99845.94
2023-03-20T14:51:59.598Z,99834.78
2023-03-20T14:54:28.927Z,99841.53
2023-03-20T14:56:56.116Z,99837.25
2023-03-20T14:59:23.851Z,99838.03
2023-03-20T15:01:57.849Z,99833.69
2023-03-20T15:04:41.249Z,99830.94
2023-03-20T15:07:25.860Z,99836.84
2023-03-20T15:09:55.682Z,99831.66
2023-03-20T15:12:27.631Z,99831.63
2023-03-20T15:14:59.244Z,99830.69
2023-03-20T15:17:28.499Z,99828.06
2023-03-20T15:20:22.234Z,99832.25
2023-03-20T15:22:52.781Z,99828.78
2023-03-20T15:25:20.885Z,99827.84
2023-03-20T15:27:47.878Z,99826.19
2023-03-20T15:30:16.558Z,99838.19
2023-03-20T15:32:43.939Z,99833.84
2023-03-20T15:35:19.264Z,99838.88
2023-03-20T15:37:47.140Z,99834.53
2023-03-20T15:40:34.420Z,99830.38
2023-03-20T15:43:19.292Z,99837.25
2023-03-20T15:45:46.326Z,99839.78
2023-03-20T15:48:21.658Z,99834.53
2023-03-20T15:50:53.915Z,99835.28
2023-03-20T15:53:30.955Z,99835.38
2023-03-20T15:56:17.630Z,99835.47
2023-03-20T15:58:45.000Z,99826.81
2023-03-20T16:01:21.017Z,99825.88
2023-03-20T16:03:48.204Z,99829.94
2023-03-20T16:06:19.176Z,99823.06
2023-03-20T16:08:46.978Z,99822.94
2023-03-20T16:11:15.954Z,99825.44
2023-03-20T16:13:47.192Z,99821.09
2023-03-20T16:16:22.036Z,99817.63
2023-03-20T16:18:49.529Z,99808.09
2023-03-20T16:21:23.468Z,99818.25
2023-03-20T16:23:52.638Z,99812.19
2023-03-20T16:26:21.378Z,99816.47
2023-03-20T16:28:55.492Z,99811.34
2023-03-20T16:31:26.105Z,99811.22
2023-03-20T16:33:53.158Z,99806.13
2023-03-20T16:36:22.746Z,99805.31
2023-03-20T16:39:10.033Z,99808.69
2023-03-20T16:41:40.601Z,99801.03
2023-03-20T16:44:12.356Z,99805.25
2023-03-20T16:46:54.611Z,99796.75
2023-03-20T16:49:44.570Z,99799.28
2023-03-20T16:52:13.105Z,99791.44
2023-03-20T16:54:40.261Z,99795.63
2023-03-20T16:57:14.733Z,99792.28
2023-03-20T16:59:41.792Z,99789.72
2023-03-20T17:02:38.335Z,99790.69
2023-03-20T17:05:08.020Z,99785.56
2023-03-20T17:07:35.090Z,99783.88
2023-03-20T17:10:24.208Z,99781.41
2023-03-20T17:12:55.056Z,99780.47
2023-03-20T17:15:23.595Z,99782.22
2023-03-20T17:17:50.906Z,99778.88
2023-03-20T17:20:22.968Z,99773.88
2023-03-20T17:22:49.997Z,99774.81
2023-03-20T17:25:17.012Z,99772.16
2023-03-20T17:27:44.072Z,99772.00
2023-03-20T17:30:14.515Z,99766.78
2023-03-20T17:32:41.436Z,99765.88
2023-03-20T17:35:08.594Z,99771.88
2023-03-20T17:37:35.525Z,99772.00
2023-03-20T17:40:02.458Z,99768.63
2023-03-20T17:42:31.581Z,99773.72
2023-03-20T17:44:59.221Z,99769.38
2023-03-20T17:47:26.977Z,99767.00
2023-03-20T17:49:54.813Z,99764.38
2023-03-20T17:52:26.515Z,99760.16
2023-03-20T17:54:53.571Z,99766.22
2023-03-20T17:57:27.412Z,99762.03
2023-03-20T17:59:54.375Z,99766.34
2023-03-20T18:02:21.354Z,99765.59
2023-03-20T18:04:48.619Z,99760.69
2023-03-20T18:07:15.896Z,99757.38
2023-03-20T18:09:43.135Z,99758.97
2023-03-20T18:12:15.598Z,99757.09
2023-03-20T18:14:43.701Z,99750.19
2023-03-20T18:17:13.929Z,99747.59
2023-03-20T18:19:40.949Z,99755.16
2023-03-20T18:22:08.042Z,99741.44
2023-03-20T18:24:35.435Z,99747.53
2023-03-20T18:27:02.621Z,99746.72
2023-03-20T18:29:29.601Z,99736.44
2023-03-20T18:31:56.729Z,99738.13
2023-03-20T18:34:23.764Z,99738.13
2023-03-20T18:36:51.239Z,99735.47
2023-03-20T18:39:22.635Z,99729.59
2023-03-20T18:41:49.750Z,99730.31
2023-03-20T18:44:16.759Z,99724.16
2023-03-20T18:46:43.753Z,99711.25
2023-03-20T18:49:14.643Z,99720.56
2023-03-20T18:51:41.623Z,99717.19
2023-03-20T18:54:08.879Z,99717.09
2023-03-20T18:56:37.754Z,99713.63
2023-03-20T18:59:09.532Z,99718.72
2023-03-20T19:01:36.560Z,99719.50
2023-03-20T19:04:03.782Z,99714.31
2023-03-20T19:06:32.318Z,99711.66
2023-03-20T19:08:59.629Z,99710.72
2023-03-20T19:11:27.057Z,99708.97
2023-03-20T19:13:54.344Z,99718.28
2023-03-20T19:16:25.209Z,99708.03
2023-03-20T19:18:53.584Z,99716.41
2023-03-20T19:21:26.010Z,99709.66
2023-03-20T19:24:04.782Z,99708.06
2023-03-20T19:26:32.494Z,99715.00
2023-03-20T19:29:01.020Z,99711.88
2023-03-20T19:31:28.470Z,99702.00
2023-03-20T19:33:56.851Z,99700.63
2023-03-20T19:36:27.783Z,99694.97
2023-03-20T19:38:55.829Z,99695.69
2023-03-20T19:41:22.813Z,99692.91
2023-03-20T19:43:53.411Z,99683.50
2023-03-20T19:46:38.733Z,99683.50
2023-03-20T19:49:07.105Z,99685.06
2023-03-20T19:51:34.014Z,99682.63
2023-03-20T19:54:00.959Z,99683.50
2023-03-20T19:56:27.869Z,99681.69
2023-03-20T19:58:54.998Z,99676.44
2023-03-20T20:01:24.186Z,99681.44
2023-03-20T20:03:53.708Z,99676.22
2023-03-20T20:06:22.358Z,99673.56
2023-03-20T20:08:51.356Z,99677.94
2023-03-20T20:11:19.049Z,99675.38
2023-03-20T20:14:07.114Z,99674.47
2023-03-20T20:16:35.702Z,99663.56
2023-03-20T20:19:02.938Z,99672.25
2023-03-20T20:24:17.005Z,99657.38
2023-03-20T20:26:54.189Z,99657.28
2023-03-20T20:29:24.843Z,99653.78
2023-03-20T20:31:51.862Z,99656.56
2023-03-20T20:39:53.804Z,99650.75
2023-03-20T20:42:20.788Z,99641.63
2023-03-20T20:44:47.863Z,99650.44
2023-03-20T20:47:15.361Z,99647.06
2023-03-20T20:49:42.478Z,99646.84
2023-03-20T20:52:09.326Z,99641.75
2023-03-20T20:54:36.344Z,99635.09
2023-03-20T20:57:03.481Z,99630.81
2023-03-20T20:59:30.587Z,99625.72
2023-03-20T21:01:57.648Z,99627.34
2023-03-20T21:04:24.754Z,99618.69
2023-03-20T21:07:09.400Z,99614.25
2023-03-20T21:09:37.566Z,99606.28
2023-03-20T21:12:04.781Z,99612.13
2023-03-20T21:14:31.776Z,99607.09
2023-03-20T21:17:01.614Z,99597.78
2023-03-20T21:19:36.030Z,99599.53
2023-03-20T21:22:03.668Z,99592.06
2023-03-20T21:24:33.865Z,99602.19
2023-03-20T21:27:06.898Z,99592.56
2023-03-20T21:29:34.170Z,99597.50
2023-03-20T21:32:01.391Z,99587.31
2023-03-20T21:34:29.253Z,99585.53
2023-03-20T21:36:57.887Z,99588.00
2023-03-20T21:39:27.642Z,99583.81
2023-03-20T21:41:54.814Z,99585.66
2023-03-20T21:45:01.089Z,99578.72
2023-03-20T21:48:04.008Z,99579.41
2023-03-20T21:53:20.184Z,99580.56
2023-03-20T21:56:37.289Z,99572.19
2023-03-20T22:01:53.916Z,99561.00
2023-03-20T22:05:00.864Z,99560.13
2023-03-20T22:18:28.804Z,99541.28
2023-03-20T22:21:22.475Z,99551.13
2023-03-20T22:27:13.059Z,99549.88
2023-03-20T22:32:40.178Z,99547.41
2023-03-20T22:38:21.873Z,99543.53
2023-03-20T22:40:57.566Z,99535.28
2023-03-20T22:43:57.182Z,99536.25
2023-03-20T22:45:57.516Z,99535.38
2023-03-20T22:48:30.450Z,99535.91
2023-03-20T22:50:57.394Z,99532.13
2023-03-20T22:53:24.317Z,99516.47
2023-03-20T22:55:52.406Z,99528.63
2023-03-20T22:58:19.391Z,99522.69
2023-03-20T23:00:46.569Z,99513.91
2023-03-20T23:03:22.748Z,99503.69
2023-03-20T23:05:56.968Z,99496.66
2023-03-20T23:08:24.791Z,99487.31
2023-03-20T23:10:52.020Z,99490.63
2023-03-20T23:13:20.385Z,99484.13
2023-03-20T23:15:47.543Z,99481.13
2023-03-20T23:18:14.947Z,99479.59
2023-03-20T23:20:41.871Z,99486.22
2023-03-20T23:23:10.262Z,99487.66
2023-03-20T23:25:39.753Z,99479.16
2023-03-20T23:28:08.578Z,99479.06
2023-03-20T23:30:46.558Z,99483.50
2023-03-20T23:33:16.679Z,99475.91
2023-03-20T23:35:43.778Z,99466.50
2023-03-20T23:38:10.852Z,99469.66
2023-03-20T23:40:38.020Z,99469.53
2023-03-20T23:43:05.048Z,99468.44
2023-03-20T23:45:32.258Z,99469.91
2023-03-20T23:47:59.178Z,99466.31
2023-03-20T23:53:20.221Z,99467.56
2023-03-20T23:55:52.098Z,99465.72
2023-03-20T23:58:19.171Z,99469.25
